createdAt,value
2018-05-18T00:00:09.949Z,0
2018-05-18T00:01:11.989Z,0
2018-05-18T00:02:14.029Z,0
2018-05-18T00:03:16.073Z,0
2018-05-18T00:04:18.099Z,0
2018-05-18T00:05:20.134Z,0
2018-05-18T00:06:22.174Z,0
2018-05-18T00:07:24.214Z,0
2018-05-18T00:08:26.540Z,0
2018-05-18T00:09:28.864Z,0
2018-05-18T00:10:31.282Z,0
2018-05-18T00:11:33.608Z,0
2018-05-18T00:12:35.636Z,0
2018-05-18T00:13:37.984Z,0
2018-05-18T00:14:40.323Z,0
2018-05-18T00:15:42.728Z,0
2018-05-18T00:16:44.768Z,0
2018-05-18T00:17:46.806Z,0
2018-05-18T00:18:49.441Z,0
2018-05-18T00:19:51.463Z,0
2018-05-18T00:20:53.496Z,0
2018-05-18T00:21:55.825Z,0
2018-05-18T00:22:58.130Z,0
2018-05-18T00:24:00.160Z,0
2018-05-18T00:25:02.890Z,0
2018-05-18T00:26:04.917Z,0
2018-05-18T00:27:06.955Z,0
2018-05-18T00:28:09.275Z,0
2018-05-18T00:29:11.314Z,0
2018-05-18T00:30:13.357Z,0
2018-05-18T00:31:15.390Z,0
2018-05-18T00:32:17.422Z,0
2018-05-18T00:33:19.461Z,0
2018-05-18T00:34:21.490Z,0
2018-05-18T00:35:23.525Z,0
2018-05-18T00:36:25.952Z,0
2018-05-18T00:37:27.980Z,0
2018-05-18T00:38:30.019Z,0
2018-05-18T00:39:32.058Z,0
2018-05-18T00:40:34.084Z,0
2018-05-18T00:41:36.432Z,0
2018-05-18T00:42:38.461Z,0
2018-05-18T00:43:40.502Z,0
2018-05-18T00:44:42.914Z,0
2018-05-18T00:45:44.944Z,0
2018-05-18T00:46:47.002Z,0
2018-05-18T00:47:49.007Z,0
2018-05-18T00:48:51.052Z,0
2018-05-18T00:49:53.389Z,0
2018-05-18T00:50:55.424Z,0
2018-05-18T00:51:57.742Z,0
2018-05-18T00:52:59.781Z,0
2018-05-18T00:54:01.821Z,0
2018-05-18T00:55:04.136Z,0
2018-05-18T00:56:06.441Z,0
2018-05-18T00:57:08.762Z,0
2018-05-18T00:58:10.804Z,0
2018-05-18T00:59:13.800Z,0
2018-05-18T01:00:15.842Z,0
2018-05-18T01:01:18.154Z,0
2018-05-18T01:02:20.190Z,0
2018-05-18T01:03:22.211Z,0
2018-05-18T01:04:24.268Z,0
2018-05-18T01:05:26.704Z,0
2018-05-18T01:06:29.024Z,0
2018-05-18T01:07:31.056Z,0
2018-05-18T01:08:33.096Z,0
2018-05-18T01:09:35.129Z,0
2018-05-18T01:10:37.154Z,0
2018-05-18T01:11:39.197Z,0
2018-05-18T01:12:41.227Z,0
2018-05-18T01:13:43.265Z,0
2018-05-18T01:14:45.679Z,0
2018-05-18T01:15:47.785Z,0
2018-05-18T01:16:50.150Z,0
2018-05-18T01:17:52.185Z,0
2018-05-18T01:18:54.267Z,0
2018-05-18T01:19:56.262Z,0
2018-05-18T01:20:58.297Z,0
2018-05-18T01:22:00.329Z,0
2018-05-18T01:23:02.360Z,0
2018-05-18T01:24:04.390Z,0
2018-05-18T01:25:06.421Z,0
2018-05-18T01:26:08.849Z,0
2018-05-18T01:27:11.150Z,0
2018-05-18T01:28:13.201Z,0
2018-05-18T01:29:15.223Z,0
2018-05-18T01:30:17.267Z,0
2018-05-18T01:31:20.360Z,0
2018-05-18T01:32:22.390Z,0
2018-05-18T01:33:24.414Z,0
2018-05-18T01:34:26.835Z,0
2018-05-18T01:35:28.871Z,0
2018-05-18T01:36:30.916Z,0
2018-05-18T01:37:32.937Z,0
2018-05-18T01:38:34.974Z,0
2018-05-18T01:39:37.002Z,0
2018-05-18T01:40:39.033Z,0
2018-05-18T01:41:41.060Z,0
2018-05-18T01:42:43.103Z,0
2018-05-18T01:43:45.143Z,0
2018-05-18T01:44:47.484Z,0
2018-05-18T01:45:49.504Z,0
2018-05-18T01:46:51.539Z,0
2018-05-18T01:47:53.576Z,0
2018-05-18T01:48:56.300Z,0
2018-05-18T01:49:58.640Z,0
2018-05-18T01:51:00.670Z,0
2018-05-18T01:52:02.701Z,0
2018-05-18T01:53:04.745Z,0
2018-05-18T01:54:06.773Z,0
2018-05-18T01:55:08.803Z,0
2018-05-18T01:56:10.840Z,0
2018-05-18T01:57:12.873Z,0
2018-05-18T01:58:14.910Z,0
2018-05-18T01:59:16.938Z,0
2018-05-18T02:00:18.986Z,0
2018-05-18T02:01:21.408Z,0
2018-05-18T02:02:23.431Z,0
2018-05-18T02:03:25.470Z,0
2018-05-18T02:04:27.507Z,0
2018-05-18T02:05:29.544Z,0
2018-05-18T02:06:31.964Z,0
2018-05-18T02:07:33.996Z,0
2018-05-18T02:08:36.027Z,0
2018-05-18T02:09:38.052Z,0
2018-05-18T02:10:40.078Z,0
2018-05-18T02:11:42.127Z,0
2018-05-18T02:12:44.165Z,0
2018-05-18T02:13:46.477Z,0
2018-05-18T02:14:48.516Z,0
2018-05-18T02:15:50.841Z,0
2018-05-18T02:16:52.875Z,0
2018-05-18T02:17:54.904Z,0
2018-05-18T02:18:56.951Z,0
2018-05-18T02:19:58.988Z,0
2018-05-18T02:21:01.011Z,0
2018-05-18T02:22:03.434Z,0
2018-05-18T02:23:05.757Z,0
2018-05-18T02:24:07.785Z,0
2018-05-18T02:25:09.826Z,0
2018-05-18T02:26:11.848Z,0
2018-05-18T02:27:13.886Z,0
2018-05-18T02:28:16.235Z,0
2018-05-18T02:29:18.267Z,0
2018-05-18T02:30:20.299Z,4
2018-05-18T02:31:22.995Z,4
2018-05-18T02:32:25.034Z,4
2018-05-18T02:33:27.356Z,0
2018-05-18T02:34:29.765Z,0
2018-05-18T02:35:31.807Z,4
2018-05-18T02:36:33.842Z,4
2018-05-18T02:37:36.548Z,4
2018-05-18T02:38:38.970Z,4
2018-05-18T02:39:41.012Z,4
2018-05-18T02:40:43.357Z,4
2018-05-18T02:41:45.381Z,8
2018-05-18T02:42:47.411Z,8
2018-05-18T02:43:49.454Z,8
2018-05-18T02:44:51.473Z,8
2018-05-18T02:45:53.906Z,8
2018-05-18T02:46:56.911Z,8
2018-05-18T02:47:59.169Z,12
2018-05-18T02:49:01.887Z,8
2018-05-18T02:50:03.929Z,12
2018-05-18T02:51:06.563Z,12
2018-05-18T02:52:08.603Z,12
2018-05-18T02:53:10.905Z,16
2018-05-18T02:54:13.350Z,20
2018-05-18T02:55:15.977Z,24
2018-05-18T02:56:18.295Z,28
2018-05-18T02:57:20.327Z,32
2018-05-18T02:58:22.357Z,36
2018-05-18T02:59:24.679Z,40
2018-05-18T03:00:26.705Z,40
2018-05-18T03:01:29.041Z,44
2018-05-18T03:02:31.339Z,48
2018-05-18T03:03:33.661Z,56
2018-05-18T03:04:36.089Z,60
2018-05-18T03:05:38.122Z,60
2018-05-18T03:06:40.433Z,68
2018-05-18T03:07:42.471Z,68
2018-05-18T03:08:44.881Z,76
2018-05-18T03:09:47.308Z,80
2018-05-18T03:10:49.331Z,88
2018-05-18T03:11:51.365Z,92
2018-05-18T03:12:53.401Z,100
2018-05-18T03:13:55.714Z,104
2018-05-18T03:14:58.115Z,116
2018-05-18T03:16:00.452Z,128
2018-05-18T03:17:02.484Z,152
2018-05-18T03:18:04.520Z,160
2018-05-18T03:19:06.548Z,180
2018-05-18T03:20:08.583Z,184
2018-05-18T03:21:10.617Z,188
2018-05-18T03:22:12.656Z,196
2018-05-18T03:23:14.692Z,216
2018-05-18T03:24:16.731Z,232
2018-05-18T03:25:18.748Z,260
2018-05-18T03:26:20.790Z,280
2018-05-18T03:27:22.820Z,284
2018-05-18T03:28:24.852Z,312
2018-05-18T03:29:26.882Z,308
2018-05-18T03:30:29.202Z,324
2018-05-18T03:31:31.635Z,332
2018-05-18T03:32:34.047Z,352
2018-05-18T03:33:36.082Z,368
2018-05-18T03:34:38.128Z,384
2018-05-18T03:35:40.154Z,388
2018-05-18T03:36:42.184Z,404
2018-05-18T03:37:44.211Z,420
2018-05-18T03:38:46.247Z,452
2018-05-18T03:39:48.285Z,468
2018-05-18T03:40:50.320Z,468
2018-05-18T03:41:52.730Z,480
2018-05-18T03:42:54.771Z,528
2018-05-18T03:43:57.178Z,548
2018-05-18T03:44:59.211Z,564
2018-05-18T03:46:01.244Z,580
2018-05-18T03:47:03.280Z,560
2018-05-18T03:48:05.319Z,572
2018-05-18T03:49:07.640Z,584
2018-05-18T03:50:09.681Z,616
2018-05-18T03:51:11.709Z,656
2018-05-18T03:52:13.737Z,696
2018-05-18T03:53:15.776Z,748
2018-05-18T03:54:17.805Z,768
2018-05-18T03:55:20.224Z,812
2018-05-18T03:56:22.643Z,896
2018-05-18T03:57:24.675Z,928
2018-05-18T03:58:26.725Z,932
2018-05-18T03:59:29.040Z,920
2018-05-18T04:00:31.067Z,896
2018-05-18T04:01:33.100Z,868
2018-05-18T04:02:35.128Z,884
2018-05-18T04:03:37.149Z,904
2018-05-18T04:04:39.846Z,928
2018-05-18T04:05:41.894Z,908
2018-05-18T04:06:43.929Z,936
2018-05-18T04:07:46.039Z,1004
2018-05-18T04:08:48.777Z,996
2018-05-18T04:09:51.098Z,976
2018-05-18T04:10:53.126Z,988
2018-05-18T04:11:55.161Z,1024
2018-05-18T04:12:57.209Z,1020
2018-05-18T04:13:59.247Z,1028
2018-05-18T04:15:01.276Z,1148
2018-05-18T04:16:03.311Z,1312
2018-05-18T04:17:05.348Z,1388
2018-05-18T04:18:07.379Z,1400
2018-05-18T04:19:09.812Z,1332
2018-05-18T04:20:11.849Z,1348
2018-05-18T04:21:14.168Z,1372
2018-05-18T04:22:16.194Z,1428
2018-05-18T04:23:18.231Z,1472
2018-05-18T04:24:20.256Z,1620
2018-05-18T04:25:22.295Z,1744
2018-05-18T04:26:24.324Z,1888
2018-05-18T04:27:26.647Z,2004
2018-05-18T04:28:28.666Z,2052
2018-05-18T04:29:30.698Z,1992
2018-05-18T04:30:32.807Z,2156
2018-05-18T04:31:34.763Z,2028
2018-05-18T04:32:37.071Z,1992
2018-05-18T04:33:39.116Z,2148
2018-05-18T04:34:41.146Z,2284
2018-05-18T04:35:43.173Z,2336
2018-05-18T04:36:45.211Z,2300
2018-05-18T04:37:47.253Z,2136
2018-05-18T04:38:49.940Z,2208
2018-05-18T04:39:51.973Z,2264
2018-05-18T04:40:54.014Z,2340
2018-05-18T04:41:56.040Z,2152
2018-05-18T04:42:58.081Z,2032
2018-05-18T04:44:00.112Z,2052
2018-05-18T04:45:02.428Z,2112
2018-05-18T04:46:04.768Z,2292
2018-05-18T04:47:06.783Z,2288
2018-05-18T04:48:08.871Z,2328
2018-05-18T04:49:10.852Z,2284
2018-05-18T04:50:12.879Z,2404
2018-05-18T04:51:14.910Z,2644
2018-05-18T04:52:16.934Z,2696
2018-05-18T04:53:18.972Z,2576
2018-05-18T04:54:21.006Z,2416
2018-05-18T04:55:23.312Z,2428
2018-05-18T04:56:25.341Z,2616
2018-05-18T04:57:27.385Z,2744
2018-05-18T04:58:29.420Z,2832
2018-05-18T04:59:31.739Z,2780
2018-05-18T05:00:34.053Z,2896
2018-05-18T05:01:36.765Z,3096
2018-05-18T05:02:38.797Z,3048
2018-05-18T05:03:40.832Z,3168
2018-05-18T05:04:42.853Z,3216
2018-05-18T05:05:44.904Z,3328
2018-05-18T05:06:46.936Z,3488
2018-05-18T05:07:48.970Z,3580
2018-05-18T05:08:51.070Z,3632
2018-05-18T05:09:53.034Z,3608
2018-05-18T05:10:55.068Z,3620
2018-05-18T05:11:57.100Z,3708
2018-05-18T05:12:59.408Z,3552
2018-05-18T05:14:01.455Z,3440
2018-05-18T05:15:04.054Z,3376
2018-05-18T05:16:06.093Z,3364
2018-05-18T05:17:08.398Z,3520
2018-05-18T05:18:10.440Z,3776
2018-05-18T05:19:12.459Z,3872
2018-05-18T05:20:14.883Z,3808
2018-05-18T05:21:17.202Z,3904
2018-05-18T05:22:19.231Z,4220
2018-05-18T05:23:21.264Z,4348
2018-05-18T05:24:23.295Z,4588
2018-05-18T05:25:25.612Z,4860
2018-05-18T05:26:27.641Z,5048
2018-05-18T05:27:29.966Z,5152
2018-05-18T05:28:32.010Z,5192
2018-05-18T05:29:34.034Z,5188
2018-05-18T05:30:36.429Z,5296
2018-05-18T05:31:38.389Z,4816
2018-05-18T05:32:40.428Z,4544
2018-05-18T05:33:42.472Z,4336
2018-05-18T05:34:44.501Z,4236
2018-05-18T05:35:46.527Z,4364
2018-05-18T05:36:48.962Z,4672
2018-05-18T05:37:50.911Z,5032
2018-05-18T05:38:52.951Z,5352
2018-05-18T05:39:55.368Z,5768
2018-05-18T05:40:57.407Z,6068
2018-05-18T05:41:59.437Z,6220
2018-05-18T05:43:01.472Z,6580
2018-05-18T05:44:03.507Z,6792
2018-05-18T05:45:06.125Z,6608
2018-05-18T05:46:08.160Z,6756
2018-05-18T05:47:10.469Z,6736
2018-05-18T05:48:12.501Z,6748
2018-05-18T05:49:14.539Z,6548
2018-05-18T05:50:16.563Z,6404
2018-05-18T05:51:18.882Z,6176
2018-05-18T05:52:21.202Z,6324
2018-05-18T05:53:23.248Z,6732
2018-05-18T05:54:25.559Z,7384
2018-05-18T05:55:27.883Z,7976
2018-05-18T05:56:29.917Z,7972
2018-05-18T05:57:31.951Z,7548
2018-05-18T05:58:34.073Z,7512
2018-05-18T05:59:36.510Z,7492
2018-05-18T06:00:38.550Z,7148
2018-05-18T06:01:40.588Z,7148
2018-05-18T06:02:43.003Z,7360
2018-05-18T06:03:45.323Z,6868
2018-05-18T06:04:47.355Z,6532
2018-05-18T06:05:49.383Z,6708
2018-05-18T06:06:51.408Z,6820
2018-05-18T06:07:53.446Z,6688
2018-05-18T06:08:55.775Z,6904
2018-05-18T06:09:58.091Z,7084
2018-05-18T06:11:00.130Z,7400
2018-05-18T06:12:02.767Z,7116
2018-05-18T06:13:05.075Z,6576
2018-05-18T06:14:07.400Z,6360
2018-05-18T06:15:09.449Z,6520
2018-05-18T06:16:11.763Z,7132
2018-05-18T06:17:13.794Z,7660
2018-05-18T06:18:15.815Z,7840
2018-05-18T06:19:17.837Z,7584
2018-05-18T06:20:19.887Z,7036
2018-05-18T06:21:21.914Z,6532
2018-05-18T06:22:23.947Z,6332
2018-05-18T06:23:25.983Z,6480
2018-05-18T06:24:28.012Z,6528
2018-05-18T06:25:30.048Z,7004
2018-05-18T06:26:32.949Z,7392
2018-05-18T06:27:34.994Z,7156
2018-05-18T06:28:37.424Z,7128
2018-05-18T06:29:39.743Z,7328
2018-05-18T06:30:41.774Z,7456
2018-05-18T06:31:43.811Z,7664
2018-05-18T06:32:46.228Z,7424
2018-05-18T06:33:48.267Z,7676
2018-05-18T06:34:50.323Z,7564
2018-05-18T06:35:52.687Z,7256
2018-05-18T06:36:55.003Z,6908
2018-05-18T06:37:57.606Z,6580
2018-05-18T06:38:59.645Z,6524
2018-05-18T06:40:01.687Z,6764
2018-05-18T06:41:04.099Z,7048
2018-05-18T06:42:06.149Z,7232
2018-05-18T06:43:08.178Z,7916
2018-05-18T06:44:10.208Z,8404
2018-05-18T06:45:12.938Z,7972
2018-05-18T06:46:14.969Z,7104
2018-05-18T06:47:17.016Z,6744
2018-05-18T06:48:19.047Z,6776
2018-05-18T06:49:21.069Z,6932
2018-05-18T06:50:23.389Z,7300
2018-05-18T06:51:25.428Z,8328
2018-05-18T06:52:27.565Z,9236
2018-05-18T06:53:29.489Z,8680
2018-05-18T06:54:31.519Z,8792
2018-05-18T06:55:33.840Z,8784
2018-05-18T06:56:36.256Z,8892
2018-05-18T06:57:38.583Z,9388
2018-05-18T06:58:41.311Z,9560
2018-05-18T06:59:44.037Z,9776
2018-05-18T07:00:46.077Z,9956
2018-05-18T07:01:48.102Z,10500
2018-05-18T07:02:50.148Z,12000
2018-05-18T07:03:52.187Z,13328
2018-05-18T07:04:54.219Z,12628
2018-05-18T07:05:56.252Z,12060
2018-05-18T07:06:58.287Z,12524
2018-05-18T07:08:00.335Z,12864
2018-05-18T07:09:02.369Z,12136
2018-05-18T07:10:04.404Z,10208
2018-05-18T07:11:06.442Z,9092
2018-05-18T07:12:08.474Z,8520
2018-05-18T07:13:10.798Z,8108
2018-05-18T07:14:12.838Z,8380
2018-05-18T07:15:15.169Z,8388
2018-05-18T07:16:17.208Z,8852
2018-05-18T07:17:19.235Z,10084
2018-05-18T07:18:21.270Z,11288
2018-05-18T07:19:23.311Z,11696
2018-05-18T07:20:25.351Z,11652
2018-05-18T07:21:27.382Z,10576
2018-05-18T07:22:29.426Z,11228
2018-05-18T07:23:31.464Z,11884
2018-05-18T07:24:33.480Z,11744
2018-05-18T07:25:35.903Z,10932
2018-05-18T07:26:37.940Z,9976
2018-05-18T07:27:39.970Z,9816
2018-05-18T07:28:42.000Z,9884
2018-05-18T07:29:44.349Z,9860
2018-05-18T07:30:46.669Z,9908
2018-05-18T07:31:48.704Z,10148
2018-05-18T07:32:50.743Z,10848
2018-05-18T07:33:52.764Z,10360
2018-05-18T07:34:54.808Z,9748
2018-05-18T07:35:56.836Z,9728
2018-05-18T07:36:58.873Z,9980
2018-05-18T07:38:00.906Z,9668
2018-05-18T07:39:02.938Z,9176
2018-05-18T07:40:04.985Z,9236
2018-05-18T07:41:07.015Z,9984
2018-05-18T07:42:09.052Z,10748
2018-05-18T07:43:11.102Z,11500
2018-05-18T07:44:13.158Z,12384
2018-05-18T07:45:15.207Z,13436
2018-05-18T07:46:17.531Z,13540
2018-05-18T07:47:19.574Z,12988
2018-05-18T07:48:21.630Z,13256
2018-05-18T07:49:24.044Z,14948
2018-05-18T07:50:26.081Z,16448
2018-05-18T07:51:28.142Z,16652
2018-05-18T07:52:30.481Z,16416
2018-05-18T07:53:32.615Z,15396
2018-05-18T07:54:35.001Z,15584
2018-05-18T07:55:37.033Z,15380
2018-05-18T07:56:39.060Z,13400
2018-05-18T07:57:41.111Z,12244
2018-05-18T07:58:43.427Z,12220
2018-05-18T07:59:45.461Z,12464
2018-05-18T08:00:47.504Z,12500
2018-05-18T08:01:49.925Z,12560
2018-05-18T08:02:51.957Z,13124
2018-05-18T08:03:53.995Z,13836
2018-05-18T08:04:56.030Z,13708
2018-05-18T08:05:58.063Z,13568
2018-05-18T08:07:00.117Z,13740
2018-05-18T08:08:02.444Z,13680
2018-05-18T08:09:04.479Z,14088
2018-05-18T08:10:06.520Z,13912
2018-05-18T08:11:08.563Z,13968
2018-05-18T08:12:10.601Z,14028
2018-05-18T08:13:12.632Z,13516
2018-05-18T08:14:14.657Z,12960
2018-05-18T08:15:16.991Z,12540
2018-05-18T08:16:19.015Z,12004
2018-05-18T08:17:21.053Z,11604
2018-05-18T08:18:23.088Z,11748
2018-05-18T08:19:25.424Z,12572
2018-05-18T08:20:27.454Z,13620
2018-05-18T08:21:29.498Z,13928
2018-05-18T08:22:31.888Z,13968
2018-05-18T08:23:34.210Z,14004
2018-05-18T08:24:36.241Z,14172
2018-05-18T08:25:38.283Z,15492
2018-05-18T08:26:40.315Z,16676
2018-05-18T08:27:42.732Z,18336
2018-05-18T08:28:44.668Z,18720
2018-05-18T08:29:46.710Z,18036
2018-05-18T08:30:48.740Z,17712
2018-05-18T08:31:50.778Z,17884
2018-05-18T08:32:52.810Z,18432
2018-05-18T08:33:54.848Z,18464
2018-05-18T08:34:56.884Z,18528
2018-05-18T08:35:58.926Z,17952
2018-05-18T08:37:01.260Z,17852
2018-05-18T08:38:03.625Z,17960
2018-05-18T08:39:05.657Z,17540
2018-05-18T08:40:07.690Z,16824
2018-05-18T08:41:10.022Z,16584
2018-05-18T08:42:12.058Z,16552
2018-05-18T08:43:14.097Z,16864
2018-05-18T08:44:16.217Z,17192
2018-05-18T08:45:18.569Z,17452
2018-05-18T08:46:20.995Z,17660
2018-05-18T08:47:23.050Z,17560
2018-05-18T08:48:25.089Z,17132
2018-05-18T08:49:27.126Z,17100
2018-05-18T08:50:29.213Z,17588
2018-05-18T08:51:31.200Z,17364
2018-05-18T08:52:33.235Z,15732
2018-05-18T08:53:35.272Z,15048
2018-05-18T08:54:37.318Z,15176
2018-05-18T08:55:39.359Z,15520
2018-05-18T08:56:41.394Z,15924
2018-05-18T08:57:43.716Z,16104
2018-05-18T08:58:45.758Z,16028
2018-05-18T08:59:47.791Z,16172
2018-05-18T09:00:49.834Z,16280
2018-05-18T09:01:51.871Z,16244
2018-05-18T09:02:53.916Z,16372
2018-05-18T09:03:55.950Z,16868
2018-05-18T09:04:57.986Z,16676
2018-05-18T09:06:00.036Z,15880
2018-05-18T09:07:02.067Z,15844
2018-05-18T09:08:04.096Z,16756
2018-05-18T09:09:06.135Z,18720
2018-05-18T09:10:08.185Z,21088
2018-05-18T09:11:10.215Z,24480
2018-05-18T09:12:12.246Z,31424
2018-05-18T09:13:14.298Z,55008
2018-05-18T09:14:16.338Z,53888
2018-05-18T09:15:18.371Z,39552
2018-05-18T09:16:20.415Z,41248
2018-05-18T09:17:22.768Z,51264
2018-05-18T09:18:24.799Z,41600
2018-05-18T09:19:26.840Z,40736
2018-05-18T09:20:28.875Z,34144
2018-05-18T09:21:30.907Z,29344
2018-05-18T09:22:32.949Z,24768
2018-05-18T09:23:34.981Z,20640
2018-05-18T09:24:37.019Z,19488
2018-05-18T09:25:39.059Z,18688
2018-05-18T09:26:41.388Z,18432
2018-05-18T09:27:43.424Z,19488
2018-05-18T09:28:45.471Z,20736
2018-05-18T09:29:47.501Z,21888
2018-05-18T09:30:49.544Z,23072
2018-05-18T09:31:51.578Z,22688
2018-05-18T09:32:53.625Z,19552
2018-05-18T09:33:55.723Z,17416
2018-05-18T09:34:57.700Z,16828
2018-05-18T09:35:59.734Z,17016
2018-05-18T09:37:01.779Z,17164
2018-05-18T09:38:03.819Z,17556
2018-05-18T09:39:05.856Z,17400
2018-05-18T09:40:07.893Z,16888
2018-05-18T09:41:09.930Z,16592
2018-05-18T09:42:11.968Z,16868
2018-05-18T09:43:14.007Z,17120
2018-05-18T09:44:16.043Z,16924
2018-05-18T09:45:18.125Z,16912
2018-05-18T09:46:21.125Z,17200
2018-05-18T09:47:31.634Z,17432
2018-05-18T09:48:42.828Z,18108
2018-05-18T09:49:56.433Z,19584
2018-05-18T09:51:03.313Z,19776
2018-05-18T09:52:12.095Z,19424
2018-05-18T09:53:22.265Z,19488
2018-05-18T09:54:32.546Z,19424
2018-05-18T09:55:44.071Z,17728
2018-05-18T09:56:46.123Z,16804
2018-05-18T09:57:48.158Z,16240
2018-05-18T09:58:50.199Z,15980
2018-05-18T09:59:52.234Z,16424
2018-05-18T10:00:54.853Z,17352
2018-05-18T10:01:57.267Z,17656
2018-05-18T10:02:59.315Z,17280
2018-05-18T10:04:01.376Z,16892
2018-05-18T10:05:03.427Z,16692
2018-05-18T10:06:05.470Z,16704
2018-05-18T10:07:07.798Z,17084
2018-05-18T10:08:09.832Z,17188
2018-05-18T10:09:11.886Z,16980
2018-05-18T10:10:13.911Z,17476
2018-05-18T10:11:16.014Z,18560
2018-05-18T10:12:18.064Z,18944
2018-05-18T10:13:20.409Z,18624
2018-05-18T10:14:22.454Z,18088
2018-05-18T10:15:25.072Z,18180
2018-05-18T10:16:27.118Z,18976
2018-05-18T10:17:29.159Z,19712
2018-05-18T10:18:31.553Z,19520
2018-05-18T10:19:33.546Z,17968
2018-05-18T10:20:35.629Z,16008
2018-05-18T10:21:37.678Z,14424
2018-05-18T10:22:40.014Z,13772
2018-05-18T10:23:42.052Z,13572
2018-05-18T10:24:44.394Z,13316
2018-05-18T10:25:46.436Z,13172
2018-05-18T10:26:48.551Z,13084
2018-05-18T10:27:50.930Z,13004
2018-05-18T10:28:52.959Z,13060
2018-05-18T10:29:55.064Z,13360
2018-05-18T10:30:57.096Z,14004
2018-05-18T10:31:59.136Z,14476
2018-05-18T10:33:01.749Z,14132
2018-05-18T10:34:04.470Z,13580
2018-05-18T10:35:06.512Z,13484
2018-05-18T10:36:08.875Z,13412
2018-05-18T10:37:10.898Z,13108
2018-05-18T10:38:13.023Z,12588
2018-05-18T10:39:14.982Z,11852
2018-05-18T10:40:17.018Z,10920
2018-05-18T10:41:19.092Z,10124
2018-05-18T10:42:21.096Z,9484
2018-05-18T10:43:23.144Z,9072
2018-05-18T10:44:25.841Z,8860
2018-05-18T10:45:28.049Z,8864
2018-05-18T10:46:30.225Z,9120
2018-05-18T10:47:33.147Z,9696
2018-05-18T10:48:36.466Z,10908
2018-05-18T10:49:38.503Z,12636
2018-05-18T10:50:40.560Z,14128
2018-05-18T10:51:42.615Z,15256
2018-05-18T10:52:44.693Z,15628
2018-05-18T10:53:46.785Z,14400
2018-05-18T10:54:48.943Z,12956
2018-05-18T10:55:51.275Z,12264
2018-05-18T10:56:53.309Z,12184
2018-05-18T10:57:55.643Z,12424
2018-05-18T10:58:57.685Z,12916
2018-05-18T11:00:00.049Z,13492
2018-05-18T11:01:02.084Z,14060
2018-05-18T11:02:04.126Z,14492
2018-05-18T11:03:06.178Z,14504
2018-05-18T11:04:08.215Z,14192
2018-05-18T11:05:10.257Z,13672
2018-05-18T11:06:12.298Z,13092
2018-05-18T11:07:14.349Z,12632
2018-05-18T11:08:16.387Z,12492
2018-05-18T11:09:18.421Z,12516
2018-05-18T11:10:20.480Z,12548
2018-05-18T11:11:22.517Z,12608
2018-05-18T11:12:24.556Z,12740
2018-05-18T11:13:26.982Z,12964
2018-05-18T11:14:29.025Z,13224
2018-05-18T11:15:31.062Z,13640
2018-05-18T11:16:33.102Z,14164
2018-05-18T11:17:35.148Z,14448
2018-05-18T11:18:37.185Z,14684
2018-05-18T11:19:39.222Z,15008
2018-05-18T11:20:41.265Z,15436
2018-05-18T11:21:43.305Z,15868
2018-05-18T11:22:45.349Z,16160
2018-05-18T11:23:47.387Z,16592
2018-05-18T11:24:49.419Z,17096
2018-05-18T11:25:51.466Z,17216
2018-05-18T11:26:53.498Z,16524
2018-05-18T11:27:55.859Z,16204
2018-05-18T11:28:57.898Z,16164
2018-05-18T11:30:00.234Z,15840
2018-05-18T11:31:02.268Z,15428
2018-05-18T11:32:04.309Z,14920
2018-05-18T11:33:06.382Z,14156
2018-05-18T11:34:08.394Z,13132
2018-05-18T11:35:10.500Z,12084
2018-05-18T11:36:13.157Z,11200
2018-05-18T11:37:15.200Z,10620
2018-05-18T11:38:17.234Z,10260
2018-05-18T11:39:19.577Z,10216
2018-05-18T11:40:21.903Z,10432
2018-05-18T11:41:23.945Z,10576
2018-05-18T11:42:25.985Z,10384
2018-05-18T11:43:28.018Z,9904
2018-05-18T11:44:30.073Z,9392
2018-05-18T11:45:32.107Z,8984
2018-05-18T11:46:34.147Z,8732
2018-05-18T11:47:36.185Z,8656
2018-05-18T11:48:38.825Z,8760
2018-05-18T11:49:41.147Z,9028
2018-05-18T11:50:43.582Z,9408
2018-05-18T11:51:45.616Z,9800
2018-05-18T11:52:47.662Z,9976
2018-05-18T11:53:49.696Z,9812
2018-05-18T11:54:51.733Z,9500
2018-05-18T11:55:53.771Z,9140
2018-05-18T11:56:55.813Z,8964
2018-05-18T11:57:57.863Z,8980
2018-05-18T11:58:59.909Z,9108
2018-05-18T12:00:01.957Z,9308
2018-05-18T12:01:03.984Z,9564
2018-05-18T12:02:06.030Z,9832
2018-05-18T12:03:08.072Z,9988
2018-05-18T12:04:10.109Z,10004
2018-05-18T12:05:12.162Z,9960
2018-05-18T12:06:14.207Z,10024
2018-05-18T12:07:16.231Z,10140
2018-05-18T12:08:18.297Z,10272
2018-05-18T12:09:20.313Z,10552
2018-05-18T12:10:22.670Z,10892
2018-05-18T12:11:24.705Z,11116
2018-05-18T12:12:26.750Z,11184
2018-05-18T12:13:28.787Z,11124
2018-05-18T12:14:30.827Z,11084
2018-05-18T12:15:33.161Z,11108
2018-05-18T12:16:35.218Z,11092
2018-05-18T12:17:37.275Z,10916
2018-05-18T12:18:39.612Z,10696
2018-05-18T12:19:41.659Z,10472
2018-05-18T12:20:43.701Z,10220
2018-05-18T12:21:45.740Z,9876
2018-05-18T12:22:48.081Z,9632
2018-05-18T12:23:50.134Z,9308
2018-05-18T12:24:52.169Z,8956
2018-05-18T12:25:54.200Z,8744
2018-05-18T12:26:56.238Z,8708
2018-05-18T12:27:58.273Z,8932
2018-05-18T12:29:00.314Z,9252
2018-05-18T12:30:02.349Z,9416
2018-05-18T12:31:05.163Z,9596
2018-05-18T12:32:07.202Z,9980
2018-05-18T12:33:09.237Z,10072
2018-05-18T12:34:11.284Z,9976
2018-05-18T12:35:13.709Z,9892
2018-05-18T12:36:15.750Z,9756
2018-05-18T12:37:18.176Z,9508
2018-05-18T12:38:20.233Z,9228
2018-05-18T12:39:22.561Z,9304
2018-05-18T12:40:24.878Z,9636
2018-05-18T12:41:26.922Z,10144
2018-05-18T12:42:29.244Z,10712
2018-05-18T12:43:31.287Z,11068
2018-05-18T12:44:33.418Z,11372
2018-05-18T12:45:35.370Z,11640
2018-05-18T12:46:37.412Z,11532
2018-05-18T12:47:39.438Z,11148
2018-05-18T12:48:41.481Z,11060
2018-05-18T12:49:43.523Z,11372
2018-05-18T12:50:45.562Z,11688
2018-05-18T12:51:48.281Z,12096
2018-05-18T12:52:50.320Z,12588
2018-05-18T12:53:52.358Z,12832
2018-05-18T12:54:54.745Z,12828
2018-05-18T12:55:56.785Z,12520
2018-05-18T12:56:58.838Z,12076
2018-05-18T12:58:01.264Z,12048
2018-05-18T12:59:03.577Z,12140
2018-05-18T13:00:05.622Z,12408
2018-05-18T13:01:07.950Z,13180
2018-05-18T13:02:09.983Z,14032
2018-05-18T13:03:12.023Z,14568
2018-05-18T13:04:14.457Z,14828
2018-05-18T13:05:16.779Z,15100
2018-05-18T13:06:19.097Z,15484
2018-05-18T13:07:21.183Z,15992
2018-05-18T13:08:23.234Z,15828
2018-05-18T13:09:25.320Z,15196
2018-05-18T13:10:27.647Z,14608
2018-05-18T13:11:29.679Z,13928
2018-05-18T13:12:31.722Z,13900
2018-05-18T13:13:33.760Z,14360
2018-05-18T13:14:35.793Z,14788
2018-05-18T13:15:37.832Z,15144
2018-05-18T13:16:39.874Z,15416
2018-05-18T13:17:41.921Z,15676
2018-05-18T13:18:43.964Z,16420
2018-05-18T13:19:46.286Z,17444
2018-05-18T13:20:48.343Z,18368
2018-05-18T13:21:50.379Z,19264
2018-05-18T13:22:52.700Z,19680
2018-05-18T13:23:54.747Z,19456
2018-05-18T13:24:56.788Z,19168
2018-05-18T13:25:58.824Z,19232
2018-05-18T13:27:00.864Z,19424
2018-05-18T13:28:03.173Z,20000
2018-05-18T13:29:05.221Z,20800
2018-05-18T13:30:07.635Z,21600
2018-05-18T13:31:09.674Z,21824
2018-05-18T13:32:11.711Z,21280
2018-05-18T13:33:14.042Z,20032
2018-05-18T13:34:16.084Z,18784
2018-05-18T13:35:18.118Z,17764
2018-05-18T13:36:20.162Z,17748
2018-05-18T13:37:22.200Z,18088
2018-05-18T13:38:24.231Z,18880
2018-05-18T13:39:26.282Z,19136
2018-05-18T13:40:28.314Z,18368
2018-05-18T13:41:30.346Z,17036
2018-05-18T13:42:32.385Z,16168
2018-05-18T13:43:34.422Z,15920
2018-05-18T13:44:36.462Z,15996
2018-05-18T13:45:38.511Z,16396
2018-05-18T13:46:40.546Z,17252
2018-05-18T13:47:42.602Z,18080
2018-05-18T13:48:44.622Z,18752
2018-05-18T13:49:47.045Z,18656
2018-05-18T13:50:49.091Z,17960
2018-05-18T13:51:51.454Z,17748
2018-05-18T13:52:53.470Z,18496
2018-05-18T13:53:55.507Z,19520
2018-05-18T13:54:57.542Z,20448
2018-05-18T13:55:59.596Z,20288